Time;durP1;ratioP1;P1;durP2;ratioP2;P2;SDS_P1;SDS_P2;PMS_P1;PMS_P2;Temp;Humidity;BMP_temperature;BMP_pressure;BME280_temperature;BME280_humidity;BME280_pressure;Samples;Min_cycle;Max_cycle;Signal;HPM_P1;HPM_P2
2022/03/05 14:37:27;;;;;;;15.55;7.82;;;;;;;;;;5419252;23;20052;-86
2022/03/05 14:39:53;;;;;;;19.55;8.20;;;;;;;;;;4882129;29;20094;-87
2022/03/05 14:42:20;;;;;;;19.42;7.63;;;;;;;;;;4882432;29;20041;-89
2022/03/05 14:44:46;;;;;;;19.13;7.85;;;;;;;;;;4882737;29;20021;-91
2022/03/05 14:47:12;;;;;;;17.48;7.93;;;;;;;;;;4882196;29;20052;-82
2022/03/05 14:49:38;;;;;;;18.15;8.48;;;;;;;;;;4888737;29;20055;-81
2022/03/05 14:52:04;;;;;;;16.52;7.80;;;;;;;;;;4864303;29;20051;-80
2022/03/05 14:54:30;;;;;;;16.48;7.30;;;;;;;;;;4885017;29;20049;-81
2022/03/05 14:56:56;;;;;;;17.52;7.93;;;;;;;;;;4865911;29;20035;-83
2022/03/05 14:59:22;;;;;;;21.75;8.88;;;;;;;;;;4863897;29;20387;-82
2022/03/05 15:01:49;;;;;;;18.95;8.73;;;;;;;;;;4875901;29;20052;-82
2022/03/05 15:04:15;;;;;;;18.27;8.40;;;;;;;;;;4880225;29;20033;-81
2022/03/05 15:06:41;;;;;;;18.38;7.97;;;;;;;;;;4886801;29;20121;-81
2022/03/05 15:09:07;;;;;;;19.60;8.32;;;;;;;;;;4863776;29;20037;-82
2022/03/05 15:11:34;;;;;;;20.15;8.93;;;;;;;;;;4863759;29;20085;-83
2022/03/05 15:14:01;;;;;;;18.38;8.68;;;;;;;;;;4864266;29;20443;-83
2022/03/05 15:16:28;;;;;;;17.98;8.00;;;;;;;;;;4863988;29;20489;-83
2022/03/05 15:18:54;;;;;;;18.00;8.20;;;;;;;;;;4863052;29;20081;-83
2022/03/05 15:21:20;;;;;;;19.13;8.32;;;;;;;;;;4880128;29;20040;-83
2022/03/05 15:23:47;;;;;;;18.80;8.07;;;;;;;;;;4863301;29;20077;-82
2022/03/05 15:26:13;;;;;;;18.77;8.05;;;;;;;;;;4880248;29;20096;-84
2022/03/05 15:28:41;;;;;;;21.60;8.85;;;;;;;;;;4863425;29;20037;-83
2022/03/05 15:31:09;;;;;;;16.05;8.18;;;;;;;;;;4880018;29;20117;-83
2022/03/05 15:33:36;;;;;;;15.35;8.18;;;;;;;;;;4863459;29;20033;-83
2022/03/05 15:36:03;;;;;;;18.55;9.02;;;;;;;;;;4863325;29;20058;-83
2022/03/05 15:38:29;;;;;;;21.35;10.15;;;;;;;;;;4863309;29;20049;-82
2022/03/05 15:40:56;;;;;;;18.65;8.45;;;;;;;;;;4863758;29;20033;-83
2022/03/05 15:43:23;;;;;;;16.90;8.90;;;;;;;;;;4863562;29;20089;-82
2022/03/05 15:45:49;;;;;;;18.70;8.45;;;;;;;;;;4873998;29;20497;-83
2022/03/05 15:48:15;;;;;;;19.08;9.40;;;;;;;;;;4863654;29;20044;-83
2022/03/05 15:50:41;;;;;;;14.93;8.32;;;;;;;;;;4892524;29;20021;-84
2022/03/05 15:53:07;;;;;;;19.33;9.15;;;;;;;;;;4879174;29;20060;-83
2022/03/05 15:55:33;;;;;;;20.52;9.35;;;;;;;;;;4866921;29;20052;-83
2022/03/05 15:57:59;;;;;;;16.58;8.05;;;;;;;;;;4863078;29;20071;-81
2022/03/05 16:00:25;;;;;;;18.30;8.70;;;;;;;;;;4863079;29;20025;-82
2022/03/05 16:02:52;;;;;;;17.10;7.53;;;;;;;;;;4863301;29;20139;-82
2022/03/05 16:05:18;;;;;;;16.38;8.40;;;;;;;;;;4863242;29;20033;-81
2022/03/05 16:07:44;;;;;;;17.02;8.32;;;;;;;;;;4879751;29;20048;-81
2022/03/05 16:10:11;;;;;;;15.35;8.10;;;;;;;;;;4863125;29;20037;-83
2022/03/05 16:12:37;;;;;;;16.45;7.80;;;;;;;;;;4880258;29;20105;-79
2022/03/05 16:15:04;;;;;;;20.13;8.90;;;;;;;;;;4862981;29;20029;-80
2022/03/05 16:17:31;;;;;;;21.05;9.52;;;;;;;;;;4863116;29;20025;-82
2022/03/05 16:19:57;;;;;;;18.05;8.90;;;;;;;;;;4863275;29;20029;-81
2022/03/05 16:22:23;;;;;;;21.52;9.10;;;;;;;;;;4883024;29;20036;-80
2022/03/05 16:24:50;;;;;;;19.48;8.93;;;;;;;;;;4908352;29;20024;-80
2022/03/05 16:27:16;;;;;;;19.70;9.73;;;;;;;;;;4917582;29;20064;-85
2022/03/05 16:29:42;;;;;;;20.40;9.40;;;;;;;;;;4917913;29;20024;-82
2022/03/05 16:32:09;;;;;;;19.25;8.98;;;;;;;;;;4887382;29;20116;-79
2022/03/05 16:34:35;;;;;;;17.63;8.77;;;;;;;;;;4898145;29;20028;-80
2022/03/05 16:37:01;;;;;;;17.83;8.40;;;;;;;;;;4898068;29;20048;-79
2022/03/05 16:39:27;;;;;;;17.08;7.30;;;;;;;;;;4901786;29;20016;-79
2022/03/05 16:41:53;;;;;;;18.75;7.80;;;;;;;;;;4917771;29;20051;-77
2022/03/05 16:44:20;;;;;;;20.80;9.48;;;;;;;;;;4917405;29;20053;-81
2022/03/05 16:46:46;;;;;;;22.33;10.02;;;;;;;;;;4901353;29;20037;-79
2022/03/05 16:49:12;;;;;;;41.72;17.85;;;;;;;;;;4887470;29;20385;-79
2022/03/05 16:51:38;;;;;;;68.78;29.60;;;;;;;;;;4888412;29;20025;-79
2022/03/05 16:54:05;;;;;;;67.05;29.85;;;;;;;;;;4871654;29;20185;-78
2022/03/05 16:56:31;;;;;;;66.97;27.90;;;;;;;;;;4875124;29;20032;-80
2022/03/05 16:58:57;;;;;;;80.80;35.40;;;;;;;;;;4870394;29;20496;-77
2022/03/05 17:01:24;;;;;;;39.83;18.27;;;;;;;;;;4872948;29;20116;-78
2022/03/05 17:03:50;;;;;;;64.65;29.27;;;;;;;;;;4889601;29;20032;-78
2022/03/05 17:06:16;;;;;;;71.60;28.92;;;;;;;;;;4897403;29;20031;-83
2022/03/05 17:08:42;;;;;;;52.75;21.42;;;;;;;;;;4888577;29;20033;-79
2022/03/05 17:11:09;;;;;;;43.70;18.17;;;;;;;;;;4890842;29;20060;-81
2022/03/05 17:13:35;;;;;;;33.30;13.55;;;;;;;;;;4879032;29;20048;-80
2022/03/05 17:16:01;;;;;;;27.90;11.77;;;;;;;;;;4879077;29;20021;-83
2022/03/05 17:18:27;;;;;;;21.77;8.50;;;;;;;;;;4862275;29;20439;-82
2022/03/05 17:20:53;;;;;;;24.95;9.90;;;;;;;;;;4896375;29;20043;-82
2022/03/05 17:23:19;;;;;;;19.92;8.60;;;;;;;;;;4919923;29;20036;-82
2022/03/05 17:25:45;;;;;;;19.00;8.88;;;;;;;;;;4903297;29;20024;-81
2022/03/05 17:28:12;;;;;;;18.90;7.70;;;;;;;;;;4919922;29;20039;-82
2022/03/05 17:30:38;;;;;;;18.58;8.35;;;;;;;;;;4902957;29;20032;-81
2022/03/05 17:33:05;;;;;;;21.10;10.55;;;;;;;;;;4880267;29;20148;-80
2022/03/05 17:35:31;;;;;;;22.17;10.25;;;;;;;;;;4865427;29;20434;-80
2022/03/05 17:37:57;;;;;;;24.50;11.93;;;;;;;;;;4894994;29;20049;-80
2022/03/05 17:40:24;;;;;;;22.58;10.18;;;;;;;;;;4898863;29;20017;-80
2022/03/05 17:42:50;;;;;;;21.70;9.07;;;;;;;;;;4910243;29;20044;-79
2022/03/05 17:45:17;;;;;;;24.52;10.10;;;;;;;;;;4885703;29;20064;-79
2022/03/05 17:47:45;;;;;;;16.83;8.02;;;;;;;;;;4869781;29;20500;-80
2022/03/05 17:50:13;;;;;;;18.70;7.72;;;;;;;;;;4895965;29;20052;-81
2022/03/05 17:52:39;;;;;;;73.55;42.03;;;;;;;;;;4883818;29;20028;-83
2022/03/05 17:55:06;;;;;;;20.40;8.00;;;;;;;;;;4884250;29;20357;-82
2022/03/05 17:57:33;;;;;;;16.10;7.10;;;;;;;;;;4883984;29;20398;-81
2022/03/05 17:59:59;;;;;;;17.25;7.22;;;;;;;;;;4900575;29;20028;-81
2022/03/05 18:02:25;;;;;;;22.73;9.23;;;;;;;;;;4884728;29;20044;-81
2022/03/05 18:04:52;;;;;;;16.58;7.63;;;;;;;;;;4884160;29;20032;-81
2022/03/05 18:07:18;;;;;;;17.95;7.75;;;;;;;;;;4885691;29;20180;-83
2022/03/05 18:09:44;;;;;;;16.88;7.13;;;;;;;;;;4902109;29;20051;-82
2022/03/05 18:12:10;;;;;;;17.52;7.38;;;;;;;;;;4884565;29;20119;-81
2022/03/05 18:14:36;;;;;;;13.40;6.90;;;;;;;;;;4901500;29;20031;-82
2022/03/05 18:17:03;;;;;;;19.70;7.68;;;;;;;;;;4885262;29;20040;-82
2022/03/05 18:19:29;;;;;;;24.17;9.07;;;;;;;;;;4884535;29;20119;-83
2022/03/05 18:21:57;;;;;;;34.05;14.50;;;;;;;;;;4885148;29;20040;-83
2022/03/05 18:24:24;;;;;;;33.42;13.00;;;;;;;;;;4901075;29;20020;-83
2022/03/05 18:26:50;;;;;;;35.08;14.40;;;;;;;;;;4884844;29;20508;-84
2022/03/05 18:29:17;;;;;;;27.33;11.48;;;;;;;;;;4884835;29;20116;-83
2022/03/05 18:31:43;;;;;;;26.63;11.55;;;;;;;;;;4884233;29;20036;-79
2022/03/05 18:34:09;;;;;;;20.70;8.80;;;;;;;;;;4901271;29;20073;-81
2022/03/05 18:36:36;;;;;;;19.27;8.85;;;;;;;;;;4883344;29;20168;-81
2022/03/05 18:39:03;;;;;;;20.95;8.70;;;;;;;;;;4883965;29;20028;-82
2022/03/05 18:41:29;;;;;;;20.63;8.93;;;;;;;;;;4900598;29;20088;-81
2022/03/05 18:43:56;;;;;;;20.75;8.77;;;;;;;;;;4883088;29;20056;-82
2022/03/05 18:46:22;;;;;;;20.35;8.35;;;;;;;;;;4883861;29;20359;-81
2022/03/05 18:48:48;;;;;;;20.63;8.35;;;;;;;;;;4882683;29;20096;-82
2022/03/05 18:51:14;;;;;;;18.35;8.77;;;;;;;;;;4883669;29;20032;-82
2022/03/05 18:53:41;;;;;;;17.40;8.00;;;;;;;;;;4881726;29;20035;-81
2022/03/05 18:56:09;;;;;;;20.85;7.72;;;;;;;;;;4882081;29;20076;-80
2022/03/05 18:58:36;;;;;;;19.83;8.30;;;;;;;;;;4867261;29;20386;-80
2022/03/05 19:01:02;;;;;;;18.90;7.72;;;;;;;;;;4862413;29;20127;-83
2022/03/05 19:03:32;;;;;;;18.08;8.23;;;;;;;;;;4863106;29;20033;-83
2022/03/05 19:05:58;;;;;;;17.83;8.02;;;;;;;;;;4864348;29;20037;-83
2022/03/05 19:08:26;;;;;;;19.40;8.70;;;;;;;;;;4864321;29;20124;-83
2022/03/05 19:10:52;;;;;;;16.85;8.20;;;;;;;;;;4882260;29;20025;-83
2022/03/05 19:13:19;;;;;;;21.80;9.18;;;;;;;;;;4882008;29;20108;-83
2022/03/05 19:15:46;;;;;;;19.35;8.32;;;;;;;;;;4881792;29;20419;-82
2022/03/05 19:18:12;;;;;;;18.30;8.55;;;;;;;;;;4864865;29;20040;-83
2022/03/05 19:20:38;;;;;;;25.47;12.53;;;;;;;;;;4882836;29;20036;-81
2022/03/05 19:23:05;;;;;;;25.55;14.23;;;;;;;;;;4899853;29;20043;-81
2022/03/05 19:25:32;;;;;;;22.23;10.93;;;;;;;;;;4879558;29;20025;-83
2022/03/05 19:27:58;;;;;;;25.83;10.98;;;;;;;;;;4897139;29;20115;-83
2022/03/05 19:30:24;;;;;;;24.27;10.15;;;;;;;;;;4898328;29;20080;-84
2022/03/05 19:32:52;;;;;;;28.35;10.77;;;;;;;;;;4916433;29;20029;-84
2022/03/05 19:35:22;;;;;;;26.35;9.63;;;;;;;;;;4888548;29;20032;-81
2022/03/05 19:37:49;;;;;;;23.17;10.10;;;;;;;;;;4883267;29;20056;-83
2022/03/05 19:40:16;;;;;;;21.52;8.88;;;;;;;;;;4899816;29;20037;-81
2022/03/05 19:42:43;;;;;;;25.45;10.15;;;;;;;;;;4883534;29;20036;-83
2022/03/05 19:45:10;;;;;;;23.02;9.98;;;;;;;;;;4883230;29;20088;-83
2022/03/05 19:47:36;;;;;;;22.75;9.25;;;;;;;;;;4901532;29;20430;-83
2022/03/05 19:50:04;;;;;;;24.15;10.05;;;;;;;;;;4885343;29;20072;-84
2022/03/05 19:52:30;;;;;;;20.52;9.00;;;;;;;;;;4888480;29;20028;-83
2022/03/05 19:54:56;;;;;;;19.75;8.82;;;;;;;;;;4902896;29;20076;-83
2022/03/05 19:57:23;;;;;;;23.92;9.50;;;;;;;;;;4885635;29;20041;-82
2022/03/05 19:59:49;;;;;;;22.52;9.30;;;;;;;;;;4884304;29;20038;-83
2022/03/05 20:02:15;;;;;;;21.55;8.82;;;;;;;;;;4899819;29;20047;-82
2022/03/05 20:04:41;;;;;;;23.52;10.25;;;;;;;;;;4883890;29;20083;-83
2022/03/05 20:07:08;;;;;;;23.60;10.48;;;;;;;;;;4883189;29;20024;-82
2022/03/05 20:09:35;;;;;;;27.25;11.15;;;;;;;;;;4883682;29;20036;-82
2022/03/05 20:12:01;;;;;;;35.28;11.02;;;;;;;;;;4884071;29;20036;-83
2022/03/05 20:14:27;;;;;;;25.55;9.85;;;;;;;;;;4883883;29;20366;-83
2022/03/05 20:16:54;;;;;;;27.88;11.20;;;;;;;;;;4899983;29;20031;-82
2022/03/05 20:19:20;;;;;;;22.58;9.85;;;;;;;;;;4883532;29;20033;-83
2022/03/05 20:21:46;;;;;;;26.15;10.25;;;;;;;;;;4883511;29;20033;-82
2022/03/05 20:24:12;;;;;;;23.70;10.50;;;;;;;;;;4883228;29;20036;-82
2022/03/05 20:26:40;;;;;;;23.33;9.70;;;;;;;;;;4882078;29;20032;-82
2022/03/05 20:29:06;;;;;;;22.52;9.52;;;;;;;;;;4882853;29;20045;-83
2022/03/05 20:31:34;;;;;;;27.65;10.38;;;;;;;;;;4883231;29;20033;-83
2022/03/05 20:34:00;;;;;;;24.67;9.73;;;;;;;;;;4882941;29;20389;-83
2022/03/05 20:36:26;;;;;;;21.20;9.80;;;;;;;;;;4883044;29;20084;-83
2022/03/05 20:38:55;;;;;;;20.75;9.77;;;;;;;;;;4900274;29;20036;-84
2022/03/05 20:41:21;;;;;;;20.20;9.40;;;;;;;;;;4882693;29;20036;-83
2022/03/05 20:43:48;;;;;;;23.45;9.77;;;;;;;;;;4883155;29;20177;-84
2022/03/05 20:46:14;;;;;;;19.63;8.82;;;;;;;;;;4899436;29;20032;-83
2022/03/05 20:48:40;;;;;;;19.88;9.35;;;;;;;;;;4882263;29;20032;-83
2022/03/05 20:51:06;;;;;;;28.15;10.73;;;;;;;;;;4882022;29;20043;-83
2022/03/05 20:53:33;;;;;;;25.80;9.88;;;;;;;;;;4898866;29;20032;-83
2022/03/05 20:55:59;;;;;;;29.27;11.07;;;;;;;;;;4883035;29;20043;-84
2022/03/05 20:58:25;;;;;;;26.30;10.18;;;;;;;;;;4903113;29;20362;-82
2022/03/05 21:00:51;;;;;;;21.08;8.60;;;;;;;;;;4886416;29;20037;-83
2022/03/05 21:03:18;;;;;;;18.65;8.10;;;;;;;;;;4885901;29;20028;-83
2022/03/05 21:05:44;;;;;;;22.20;9.23;;;;;;;;;;4886087;29;20036;-83
2022/03/05 21:08:11;;;;;;;18.75;8.20;;;;;;;;;;4886759;29;20035;-82
2022/03/05 21:10:37;;;;;;;19.88;8.35;;;;;;;;;;4903223;29;20036;-81
2022/03/05 21:13:03;;;;;;;22.08;10.10;;;;;;;;;;4903155;29;20025;-82
2022/03/05 21:15:29;;;;;;;28.45;11.98;;;;;;;;;;4906707;29;20009;-85
2022/03/05 21:17:55;;;;;;;27.95;10.65;;;;;;;;;;4902037;29;20405;-82
2022/03/05 21:20:22;;;;;;;29.50;10.90;;;;;;;;;;4885773;29;20497;-83
2022/03/05 21:22:48;;;;;;;31.02;11.70;;;;;;;;;;4885604;29;20040;-82
2022/03/05 21:25:14;;;;;;;33.72;12.40;;;;;;;;;;4886195;29;20123;-82
2022/03/05 21:27:40;;;;;;;32.60;12.20;;;;;;;;;;4886119;29;20478;-82
2022/03/05 21:30:07;;;;;;;47.83;15.93;;;;;;;;;;4885906;29;20029;-82
2022/03/05 21:32:33;;;;;;;42.72;13.35;;;;;;;;;;4885494;29;20036;-81
2022/03/05 21:34:59;;;;;;;35.85;13.43;;;;;;;;;;4885075;29;20025;-80
2022/03/05 21:37:25;;;;;;;29.33;11.30;;;;;;;;;;4884804;29;20131;-81
2022/03/05 21:39:51;;;;;;;33.17;11.88;;;;;;;;;;4902274;29;20064;-82
2022/03/05 21:42:18;;;;;;;26.77;10.40;;;;;;;;;;4884624;29;20040;-80
2022/03/05 21:44:44;;;;;;;26.95;9.48;;;;;;;;;;4884861;29;20128;-82
2022/03/05 21:47:10;;;;;;;20.75;9.48;;;;;;;;;;4902107;29;20029;-82
2022/03/05 21:49:36;;;;;;;18.95;9.25;;;;;;;;;;4885437;29;20087;-81
2022/03/05 21:52:03;;;;;;;22.65;8.98;;;;;;;;;;4885172;29;20060;-82
2022/03/05 21:54:30;;;;;;;23.42;9.02;;;;;;;;;;4885454;29;20116;-82
2022/03/05 21:56:58;;;;;;;18.85;8.65;;;;;;;;;;4885171;29;20509;-81
2022/03/05 21:59:24;;;;;;;22.77;9.15;;;;;;;;;;4901893;29;20020;-82
2022/03/05 22:01:50;;;;;;;21.58;9.50;;;;;;;;;;4873615;29;20120;-81
2022/03/05 22:04:16;;;;;;;22.25;9.00;;;;;;;;;;4876340;29;20120;-80
2022/03/05 22:06:42;;;;;;;22.40;10.35;;;;;;;;;;4882528;29;20029;-81
2022/03/05 22:09:08;;;;;;;19.33;8.77;;;;;;;;;;4866180;29;20029;-81
2022/03/05 22:11:34;;;;;;;21.05;9.40;;;;;;;;;;4886113;29;20085;-82
2022/03/05 22:14:01;;;;;;;20.50;9.60;;;;;;;;;;4865961;29;20073;-80
2022/03/05 22:16:27;;;;;;;19.45;8.13;;;;;;;;;;4865521;29;20072;-80
2022/03/05 22:18:53;;;;;;;23.38;9.38;;;;;;;;;;4865798;29;20033;-80
2022/03/05 22:21:21;;;;;;;17.33;8.13;;;;;;;;;;4881866;29;20491;-81
2022/03/05 22:23:48;;;;;;;16.70;7.78;;;;;;;;;;4865642;29;20379;-81
2022/03/05 22:26:14;;;;;;;17.92;8.15;;;;;;;;;;4882096;29;20048;-82
2022/03/05 22:28:40;;;;;;;17.48;8.13;;;;;;;;;;4865883;29;20041;-82
2022/03/05 22:31:07;;;;;;;17.80;8.05;;;;;;;;;;4865912;29;20033;-80
2022/03/05 22:33:33;;;;;;;17.67;7.78;;;;;;;;;;4882541;29;20025;-79
2022/03/05 22:36:05;;;;;;;17.10;8.10;;;;;;;;;;4882582;29;20108;-83
2022/03/05 22:38:32;;;;;;;19.40;7.88;;;;;;;;;;4862796;29;20455;-81
2022/03/05 22:40:58;;;;;;;18.15;8.00;;;;;;;;;;4863048;29;20040;-83
2022/03/05 22:43:24;;;;;;;16.05;7.80;;;;;;;;;;4862925;29;20128;-83
2022/03/05 22:45:50;;;;;;;15.30;7.80;;;;;;;;;;4863953;29;20034;-83
2022/03/05 22:48:17;;;;;;;19.52;7.53;;;;;;;;;;4862680;29;20026;-83
2022/03/05 22:50:43;;;;;;;17.08;7.50;;;;;;;;;;4863859;29;20479;-83
2022/03/05 22:53:10;;;;;;;17.65;8.00;;;;;;;;;;4863056;29;20052;-84
2022/03/05 22:55:36;;;;;;;17.80;8.15;;;;;;;;;;4862852;29;20052;-82
2022/03/05 22:58:03;;;;;;;14.60;7.22;;;;;;;;;;4863661;29;20037;-83
2022/03/05 23:00:29;;;;;;;20.95;8.55;;;;;;;;;;4878239;29;20037;-84
2022/03/05 23:05:41;;;;;;;20.67;7.90;;;;;;;;;;4865820;29;20044;-82
2022/03/05 23:10:54;;;;;;;17.35;7.95;;;;;;;;;;4863934;29;20490;-83
2022/03/05 23:13:20;;;;;;;17.63;7.97;;;;;;;;;;4862516;29;20037;-83
2022/03/05 23:15:46;;;;;;;19.27;7.15;;;;;;;;;;4862083;29;20072;-83
2022/03/05 23:18:12;;;;;;;20.92;9.32;;;;;;;;;;4863170;29;20025;-83
2022/03/05 23:20:39;;;;;;;16.80;7.55;;;;;;;;;;4861654;29;20080;-84
2022/03/05 23:23:05;;;;;;;17.73;8.10;;;;;;;;;;4863516;29;20080;-83
2022/03/05 23:25:31;;;;;;;16.13;7.28;;;;;;;;;;4862137;29;20065;-83
2022/03/05 23:27:58;;;;;;;21.30;7.68;;;;;;;;;;4862005;29;20037;-83
2022/03/05 23:30:27;;;;;;;16.70;7.60;;;;;;;;;;4863309;29;20109;-83
2022/03/05 23:32:54;;;;;;;13.10;6.43;;;;;;;;;;4861338;29;20029;-81
2022/03/05 23:35:20;;;;;;;14.32;6.47;;;;;;;;;;4862617;29;20041;-82
2022/03/05 23:37:46;;;;;;;16.35;7.38;;;;;;;;;;4873639;29;20053;-81
2022/03/05 23:40:13;;;;;;;12.48;6.40;;;;;;;;;;4881276;29;20029;-80
2022/03/05 23:42:39;;;;;;;19.00;7.15;;;;;;;;;;4880860;29;20056;-81
2022/03/05 23:45:06;;;;;;;15.70;6.30;;;;;;;;;;4864371;29;20025;-83
2022/03/05 23:47:32;;;;;;;13.95;6.45;;;;;;;;;;4864230;29;20036;-82
2022/03/05 23:49:59;;;;;;;15.77;7.07;;;;;;;;;;4864932;29;20028;-82
2022/03/05 23:52:25;;;;;;;14.57;6.60;;;;;;;;;;4864529;29;20040;-81
2022/03/05 23:54:51;;;;;;;20.55;7.35;;;;;;;;;;4863748;29;20498;-83
2022/03/05 23:57:17;;;;;;;12.60;6.32;;;;;;;;;;4865123;29;20029;-82
2022/03/05 23:59:44;;;;;;;16.33;7.05;;;;;;;;;;4865062;29;20062;-84
